Time;durP1;ratioP1;P1;durP2;ratioP2;P2;SDS_P1;SDS_P2;PMS_P1;PMS_P2;Temp;Humidity;BMP_temperature;BMP_pressure;BME280_temperature;BME280_humidity;BME280_pressure;Samples;Min_cycle;Max_cycle;Signal;HPM_P1;HPM_P2
2022/01/03 00:01:34;;;;;;;8.50;5.80;;;;;;;9.22;92.69;99035.09;1821100;78;25372;-70
2022/01/03 00:04:01;;;;;;;9.40;6.47;;;;;;;9.19;92.70;99030.34;1821041;78;25391;-71
2022/01/03 00:06:27;;;;;;;13.70;6.72;;;;;;;9.18;92.96;99041.70;1821097;78;25696;-72
2022/01/03 00:08:56;;;;;;;12.93;7.95;;;;;;;9.18;92.26;99037.66;1776438;79;27474;-72
2022/01/03 00:11:22;;;;;;;14.15;8.05;;;;;;;9.19;92.21;99035.74;1821101;78;25596;-72
2022/01/03 00:13:51;;;;;;;13.50;5.60;;;;;;;9.19;91.92;99035.17;1821143;78;25585;-72
2022/01/03 00:16:18;;;;;;;11.05;5.90;;;;;;;9.21;91.28;99031.61;1821305;78;25545;-73
2022/01/03 00:18:45;;;;;;;12.15;6.62;;;;;;;9.23;92.08;99022.62;1805340;79;25632;-72
2022/01/03 00:21:15;;;;;;;9.63;6.15;;;;;;;9.23;91.06;99032.06;1820947;78;27546;-72
2022/01/03 00:23:51;;;;;;;10.35;5.85;;;;;;;9.23;90.29;99040.16;1821023;78;26005;-72
2022/01/03 00:26:27;;;;;;;10.60;5.53;;;;;;;9.24;90.57;99053.86;1805364;79;25602;-71
2022/01/03 00:29:01;;;;;;;9.40;5.92;;;;;;;9.23;90.00;99040.70;1817828;78;25548;-72
2022/01/03 00:31:42;;;;;;;10.78;6.10;;;;;;;9.25;88.64;99031.73;1820966;78;25366;-72
2022/01/03 00:34:14;;;;;;;8.68;5.45;;;;;;;9.26;89.53;99041.39;1820708;78;28326;-72
2022/01/03 00:36:45;;;;;;;9.00;5.33;;;;;;;9.26;89.79;99048.95;1820832;78;25604;-72
2022/01/03 00:39:13;;;;;;;11.83;5.92;;;;;;;9.28;89.39;99028.35;1837471;78;25542;-71
2022/01/03 00:41:43;;;;;;;9.75;5.62;;;;;;;9.29;89.51;99031.29;1805251;79;25524;-72
2022/01/03 00:44:12;;;;;;;7.72;5.53;;;;;;;9.28;88.77;99025.66;1805488;79;25367;-72
2022/01/03 00:46:39;;;;;;;8.75;5.42;;;;;;;9.30;89.39;99045.02;1805450;79;27453;-72
2022/01/03 00:49:06;;;;;;;9.23;5.78;;;;;;;9.31;88.44;99039.30;1775754;79;25621;-72
2022/01/03 00:51:35;;;;;;;9.20;5.58;;;;;;;9.32;88.73;99035.46;1805280;79;25555;-70
2022/01/03 00:54:04;;;;;;;11.90;5.50;;;;;;;9.32;87.38;99033.33;1805097;79;26015;-70
2022/01/03 00:56:47;;;;;;;10.18;6.08;;;;;;;9.33;88.40;99025.45;1805083;79;25565;-70
2022/01/03 00:59:34;;;;;;;8.25;5.40;;;;;;;9.32;87.83;99026.02;1805244;79;27225;-71
2022/01/03 01:02:04;;;;;;;9.88;5.95;;;;;;;9.32;87.75;98988.24;1804745;79;25757;-71
2022/01/03 01:04:33;;;;;;;10.98;5.62;;;;;;;9.31;87.49;99015.55;1805208;79;25368;-71
2022/01/03 01:06:59;;;;;;;8.33;4.60;;;;;;;9.32;87.74;99026.02;1776339;79;25547;-72
2022/01/03 01:09:28;;;;;;;11.22;5.47;;;;;;;9.31;87.53;99015.02;1805446;79;25387;-71
2022/01/03 01:11:57;;;;;;;13.68;5.62;;;;;;;9.31;87.99;99006.11;1805579;79;27493;-71
2022/01/03 01:14:27;;;;;;;10.95;5.85;;;;;;;9.31;87.57;98992.61;1805497;79;25356;-71
2022/01/03 01:16:55;;;;;;;9.08;5.42;;;;;;;9.29;87.70;98998.34;1805414;79;25369;-69
2022/01/03 01:19:24;;;;;;;8.83;4.55;;;;;;;9.29;87.36;99015.09;1805375;79;25477;-69
2022/01/03 01:21:52;;;;;;;10.18;5.22;;;;;;;9.30;86.96;98991.05;1808148;79;25495;-70
2022/01/03 01:24:22;;;;;;;9.35;5.62;;;;;;;9.29;86.90;98992.95;1781383;79;28032;-70
2022/01/03 01:29:36;;;;;;;8.05;6.10;;;;;;;9.26;86.62;98986.08;1808591;79;25475;-70
2022/01/03 01:32:04;;;;;;;10.00;6.20;;;;;;;9.24;86.95;98990.45;1808442;79;25473;-70
2022/01/03 01:34:34;;;;;;;7.53;5.25;;;;;;;9.25;87.03;98984.52;1808847;79;25584;-70
2022/01/03 01:37:02;;;;;;;7.42;4.67;;;;;;;9.23;86.92;98979.45;1808543;79;28124;-70
2022/01/03 01:39:30;;;;;;;6.85;4.50;;;;;;;9.22;85.15;98987.30;1808171;79;25383;-71
2022/01/03 01:42:02;;;;;;;7.78;4.67;;;;;;;9.22;86.11;98978.42;1808457;79;25390;-70
2022/01/03 01:44:35;;;;;;;8.08;4.05;;;;;;;9.20;86.46;98986.85;1808531;79;25596;-71
2022/01/03 01:47:06;;;;;;;8.95;5.08;;;;;;;9.19;85.58;98962.33;1785897;79;25617;-71
2022/01/03 01:49:40;;;;;;;9.20;4.80;;;;;;;9.20;85.99;98987.42;1808562;79;28068;-71
2022/01/03 01:52:11;;;;;;;8.35;4.80;;;;;;;9.19;86.22;98986.61;1807468;79;25733;-71
2022/01/03 01:54:38;;;;;;;7.25;4.47;;;;;;;9.17;86.18;98982.11;1807126;79;25355;-71
2022/01/03 01:57:17;;;;;;;11.12;4.30;;;;;;;9.15;86.45;98975.70;1808494;79;25661;-71
2022/01/03 02:00:10;;;;;;;7.85;4.05;;;;;;;9.13;84.39;98977.16;1781554;79;25681;-69
2022/01/03 02:02:59;;;;;;;8.68;4.37;;;;;;;9.13;85.47;98984.69;1808560;79;27470;-69
2022/01/03 02:05:42;;;;;;;6.30;4.33;;;;;;;9.14;85.32;98981.42;1808481;79;25746;-69
2022/01/03 02:08:19;;;;;;;6.62;4.50;;;;;;;9.13;85.71;98971.77;1805116;79;25422;-68
2022/01/03 02:10:52;;;;;;;7.10;4.35;;;;;;;9.12;85.64;98972.31;1807946;79;26191;-68
2022/01/03 02:13:22;;;;;;;7.42;3.75;;;;;;;9.11;85.67;98968.05;1807957;79;25386;-68
2022/01/03 02:16:00;;;;;;;7.97;4.33;;;;;;;9.10;85.73;98966.45;1808636;79;27479;-70
2022/01/03 02:18:18;;;;;;;7.33;4.35;;;;;;;9.09;85.09;98965.44;1806725;79;25515;-69
2022/01/03 02:20:44;;;;;;;11.12;4.25;;;;;;;9.16;84.73;98984.60;1781365;79;25674;-70
2022/01/03 02:23:12;;;;;;;9.73;4.03;;;;;;;9.08;84.51;98965.23;1808503;79;25588;-71
2022/01/03 02:25:39;;;;;;;6.10;4.00;;;;;;;9.07;84.12;98967.69;1808336;79;25612;-71
2022/01/03 02:28:05;;;;;;;5.55;4.10;;;;;;;9.06;84.79;98972.84;1808274;79;28345;-71
2022/01/03 02:30:34;;;;;;;7.45;3.90;;;;;;;9.04;84.68;98961.59;1808175;79;25625;-71
2022/01/03 02:33:00;;;;;;;8.75;4.75;;;;;;;9.03;84.92;98953.30;1808556;79;25440;-71
2022/01/03 02:35:27;;;;;;;7.17;4.22;;;;;;;9.01;85.25;98961.71;1808478;79;25523;-71
2022/01/03 02:37:54;;;;;;;7.92;4.60;;;;;;;9.00;84.83;98960.12;1808523;79;25378;-71
2022/01/03 02:40:22;;;;;;;8.33;4.05;;;;;;;8.96;85.19;98974.05;1808443;79;28097;-71
2022/01/03 02:42:50;;;;;;;10.10;4.20;;;;;;;8.95;84.91;98953.59;1808430;79;25739;-71
2022/01/03 02:45:23;;;;;;;7.72;4.45;;;;;;;8.93;84.95;98957.95;1808545;79;25554;-70
2022/01/03 02:47:54;;;;;;;8.13;3.95;;;;;;;8.89;85.02;98963.80;1808490;79;25532;-70
2022/01/03 02:50:23;;;;;;;7.10;4.37;;;;;;;8.85;85.02;98956.12;1808473;79;25563;-70
2022/01/03 02:52:49;;;;;;;6.42;4.05;;;;;;;8.81;84.35;98947.69;1808187;79;28151;-70
2022/01/03 02:55:17;;;;;;;8.03;3.80;;;;;;;8.75;85.11;98955.98;1808411;79;25375;-70
2022/01/03 02:57:50;;;;;;;6.62;4.10;;;;;;;8.70;84.76;98959.41;1808515;79;25583;-70
2022/01/03 03:00:22;;;;;;;5.85;4.00;;;;;;;8.68;84.97;98938.17;1808432;79;25607;-70
2022/01/03 03:02:50;;;;;;;7.58;3.52;;;;;;;8.66;85.25;98948.50;1808686;79;25541;-70
2022/01/03 03:05:17;;;;;;;8.48;3.83;;;;;;;8.63;85.08;98943.76;1808586;79;27461;-71
2022/01/03 03:07:47;;;;;;;4.60;3.30;;;;;;;8.62;85.10;98940.06;1808436;79;25440;-70
2022/01/03 03:10:17;;;;;;;8.48;3.37;;;;;;;8.57;85.02;98940.48;1808545;79;25541;-70
2022/01/03 03:12:46;;;;;;;5.35;3.20;;;;;;;8.51;84.63;98939.11;1808614;79;25634;-70
2022/01/03 03:15:15;;;;;;;7.72;3.60;;;;;;;8.49;85.12;98945.36;1809854;79;25639;-70
2022/01/03 03:17:43;;;;;;;8.28;3.47;;;;;;;8.46;85.27;98938.50;1809843;79;27811;-70
2022/01/03 03:20:14;;;;;;;6.62;3.35;;;;;;;8.39;85.25;98933.05;1808327;79;25567;-70
2022/01/03 03:22:41;;;;;;;5.92;3.30;;;;;;;8.38;85.35;98947.63;1805386;79;25381;-71
2022/01/03 03:25:15;;;;;;;4.35;2.98;;;;;;;8.33;85.26;98924.14;1805166;79;25495;-70
2022/01/03 03:27:45;;;;;;;4.78;3.22;;;;;;;8.31;85.51;98937.12;1805409;79;25398;-70
2022/01/03 03:30:20;;;;;;;5.67;3.05;;;;;;;8.29;85.66;98933.44;1805377;79;27187;-70
2022/01/03 03:32:49;;;;;;;4.67;3.20;;;;;;;8.26;85.70;98938.66;1805304;79;25579;-71
2022/01/03 03:35:17;;;;;;;5.28;3.12;;;;;;;8.22;85.85;98943.92;1805428;79;25551;-72
2022/01/03 03:37:43;;;;;;;5.40;3.50;;;;;;;8.18;85.93;98943.00;1805330;79;26023;-72
2022/01/03 03:40:11;;;;;;;6.05;3.85;;;;;;;8.15;85.93;98948.47;1805299;79;25399;-72
2022/01/03 03:42:39;;;;;;;5.78;3.33;;;;;;;8.12;86.11;98931.64;1805339;79;27616;-72
2022/01/03 03:45:08;;;;;;;7.10;3.87;;;;;;;8.09;86.15;98931.47;1804950;79;25521;-69
2022/01/03 03:47:34;;;;;;;6.12;3.80;;;;;;;8.06;86.21;98947.73;1805114;79;25626;-71
2022/01/03 03:50:04;;;;;;;6.03;3.70;;;;;;;8.03;86.33;98942.42;1804978;79;25538;-71
2022/01/03 03:52:33;;;;;;;7.87;4.62;;;;;;;8.00;86.44;98938.25;1750981;79;25658;-69
2022/01/03 03:54:59;;;;;;;6.42;3.50;;;;;;;7.96;86.40;98934.08;1805328;79;27437;-69
2022/01/03 03:57:27;;;;;;;7.33;3.58;;;;;;;7.94;86.25;98935.53;1805205;79;25403;-69
2022/01/03 03:59:53;;;;;;;5.55;3.87;;;;;;;7.92;86.34;98922.95;1805308;79;25491;-69
2022/01/03 04:02:20;;;;;;;6.35;3.37;;;;;;;7.93;86.44;98927.20;1805270;79;25520;-71
2022/01/03 04:04:46;;;;;;;5.78;3.22;;;;;;;7.91;86.09;98930.22;1805181;79;25523;-71
2022/01/03 04:07:13;;;;;;;5.20;3.00;;;;;;;7.90;86.02;98933.23;1805289;79;27453;-70
2022/01/03 04:09:39;;;;;;;7.12;3.40;;;;;;;7.89;85.96;98939.75;1805246;79;25501;-71
2022/01/03 04:12:07;;;;;;;5.72;3.25;;;;;;;7.88;85.80;98928.17;1805341;79;25563;-71
2022/01/03 04:14:33;;;;;;;7.12;3.22;;;;;;;7.89;85.75;98953.21;1805249;79;26123;-71
2022/01/03 04:17:00;;;;;;;4.75;2.70;;;;;;;7.89;85.63;98939.75;1805311;79;25452;-71
2022/01/03 04:19:27;;;;;;;6.53;3.33;;;;;;;7.86;85.61;98933.09;1805306;79;28116;-71
2022/01/03 04:21:53;;;;;;;4.37;3.00;;;;;;;7.86;85.50;98931.75;1805054;79;25769;-71
2022/01/03 04:24:20;;;;;;;4.45;3.15;;;;;;;7.84;85.38;98938.02;1805132;79;25367;-71
2022/01/03 04:26:49;;;;;;;6.72;3.08;;;;;;;7.82;85.21;98934.30;1805319;79;25563;-71
2022/01/03 04:29:15;;;;;;;9.75;3.42;;;;;;;7.83;85.20;98953.92;1805196;79;25388;-71
2022/01/03 04:31:41;;;;;;;7.87;4.03;;;;;;;7.80;85.40;98937.88;1805260;79;27509;-71
2022/01/03 04:34:08;;;;;;;4.85;2.92;;;;;;;7.78;85.39;98926.65;1805185;79;25575;-71
2022/01/03 04:36:35;;;;;;;7.45;3.22;;;;;;;7.76;85.23;98943.66;1805319;79;25408;-71
2022/01/03 04:39:04;;;;;;;5.28;3.37;;;;;;;7.75;85.44;98942.09;1805051;79;25480;-71
2022/01/03 04:41:30;;;;;;;6.22;3.45;;;;;;;7.74;85.55;98951.27;1805403;79;25426;-71
2022/01/03 04:43:57;;;;;;;5.58;3.12;;;;;;;7.73;85.50;98944.33;1805441;79;27522;-71
2022/01/03 04:46:23;;;;;;;6.70;3.83;;;;;;;7.70;85.41;98943.62;1805444;79;25373;-71
2022/01/03 04:48:50;;;;;;;8.38;3.60;;;;;;;7.70;85.82;98949.00;1805880;79;25544;-71
2022/01/03 04:51:16;;;;;;;7.83;3.90;;;;;;;7.68;85.91;98951.23;1805707;79;25460;-71
2022/01/03 04:53:43;;;;;;;7.37;4.67;;;;;;;7.65;86.09;98947.27;1805409;79;25601;-71
2022/01/03 04:56:13;;;;;;;7.65;4.37;;;;;;;7.65;86.35;98957.25;1805161;79;27467;-71
2022/01/03 04:58:43;;;;;;;7.28;4.85;;;;;;;7.64;86.46;98957.00;1805317;79;25766;-71
2022/01/03 05:01:12;;;;;;;7.90;4.78;;;;;;;7.62;86.62;98960.58;1805279;79;25570;-71
2022/01/03 05:03:38;;;;;;;9.10;5.10;;;;;;;7.61;86.78;98955.77;1805085;79;26037;-71
2022/01/03 05:06:05;;;;;;;6.87;4.97;;;;;;;7.58;86.84;98941.59;1776065;79;25413;-71
2022/01/03 05:08:33;;;;;;;8.85;4.50;;;;;;;7.59;86.98;98961.22;1805454;79;28029;-71
2022/01/03 05:11:00;;;;;;;10.18;5.00;;;;;;;7.56;87.10;98951.90;1805355;79;25479;-71
2022/01/03 05:13:31;;;;;;;7.92;5.15;;;;;;;7.53;87.10;98955.23;1805402;79;25601;-71
2022/01/03 05:16:01;;;;;;;9.13;5.12;;;;;;;7.51;87.15;98949.92;1805377;79;25563;-69
2022/01/03 05:18:28;;;;;;;10.78;5.10;;;;;;;7.47;87.21;98950.58;1805540;79;31921;-70
2022/01/03 05:20:56;;;;;;;9.05;4.67;;;;;;;7.44;87.22;98953.91;1805414;79;27510;-70
2022/01/03 05:23:24;;;;;;;7.72;5.05;;;;;;;7.40;87.41;98950.83;1808364;79;25672;-70
2022/01/03 05:25:51;;;;;;;8.50;4.80;;;;;;;7.38;87.43;98955.74;1808574;79;25384;-69
2022/01/03 05:28:18;;;;;;;11.03;5.35;;;;;;;7.36;87.44;98947.20;1808525;79;25571;-69
2022/01/03 05:30:44;;;;;;;9.70;5.33;;;;;;;7.33;87.61;98954.00;1808596;79;25583;-70
2022/01/03 05:33:11;;;;;;;8.63;4.85;;;;;;;7.31;87.70;98962.17;1785755;79;29018;-70
2022/01/03 05:35:38;;;;;;;10.08;5.33;;;;;;;7.29;87.75;98953.08;1808555;79;25562;-70
2022/01/03 05:38:04;;;;;;;10.32;5.95;;;;;;;7.25;87.74;98960.18;1808468;79;25443;-70
2022/01/03 05:40:32;;;;;;;8.53;5.33;;;;;;;7.24;87.90;98959.97;1808418;79;25607;-70
2022/01/03 05:42:59;;;;;;;7.00;5.70;;;;;;;7.21;87.91;98953.31;1781648;79;25571;-70
2022/01/03 05:45:26;;;;;;;7.53;5.37;;;;;;;7.20;88.06;98955.78;1808558;79;27637;-70
2022/01/03 05:47:53;;;;;;;9.40;5.92;;;;;;;7.18;88.15;98963.35;1808495;79;25599;-71
2022/01/03 05:50:20;;;;;;;7.97;5.47;;;;;;;7.16;88.10;98961.54;1808563;79;25600;-71
2022/01/03 05:52:46;;;;;;;10.43;5.70;;;;;;;7.14;88.14;98954.91;1808426;79;26448;-71
2022/01/03 05:55:13;;;;;;;9.15;5.35;;;;;;;7.11;88.37;98961.70;1808575;79;25387;-71
2022/01/03 05:57:40;;;;;;;10.23;6.20;;;;;;;7.11;88.45;98963.05;1808579;79;28025;-71
2022/01/03 06:00:11;;;;;;;9.25;5.60;;;;;;;7.11;88.73;98969.77;1808539;79;25611;-71
2022/01/03 06:02:41;;;;;;;9.28;5.85;;;;;;;7.13;88.69;98970.80;1808653;79;25444;-71
2022/01/03 06:05:10;;;;;;;8.78;5.55;;;;;;;7.10;88.67;98970.34;1782129;79;25645;-71
2022/01/03 06:07:37;;;;;;;11.33;5.78;;;;;;;7.10;88.62;98971.68;1808725;79;25425;-71
2022/01/03 06:10:09;;;;;;;9.83;6.10;;;;;;;7.11;88.60;98979.19;1808643;79;27467;-71
2022/01/03 06:12:34;;;;;;;8.70;5.90;;;;;;;7.10;88.58;98978.97;1781661;79;25656;-71
2022/01/03 06:15:00;;;;;;;9.50;6.33;;;;;;;7.06;88.58;98972.06;1808437;79;25593;-71
2022/01/03 06:17:27;;;;;;;8.25;5.30;;;;;;;7.06;88.84;98972.06;1808527;79;25598;-71
2022/01/03 06:19:53;;;;;;;7.72;5.45;;;;;;;7.08;88.95;98975.25;1808529;79;25388;-71
2022/01/03 06:22:20;;;;;;;11.25;5.83;;;;;;;7.08;89.08;98971.21;1808392;79;27535;-72
2022/01/03 06:24:47;;;;;;;11.90;6.00;;;;;;;7.10;88.99;98969.55;1808402;79;25379;-72
2022/01/03 06:27:16;;;;;;;8.10;6.08;;;;;;;7.09;88.99;98968.74;1808498;79;25522;-71
2022/01/03 06:29:42;;;;;;;9.95;5.45;;;;;;;7.09;88.87;98980.84;1808161;79;25612;-70
2022/01/03 06:32:08;;;;;;;11.15;5.60;;;;;;;7.07;88.92;98979.03;1808218;79;25552;-72
2022/01/03 06:34:35;;;;;;;14.43;5.85;;;;;;;7.07;89.03;98980.94;1808059;78;27461;-72
2022/01/03 06:37:01;;;;;;;12.65;6.37;;;;;;;7.06;88.97;98992.23;1808830;78;25452;-72
2022/01/03 06:39:28;;;;;;;8.68;5.50;;;;;;;7.06;88.99;98987.41;1827115;78;25680;-73
2022/01/03 06:41:54;;;;;;;8.80;5.10;;;;;;;7.05;88.97;98980.47;1818060;78;25679;-72
2022/01/03 06:44:21;;;;;;;10.20;4.95;;;;;;;7.04;89.04;98987.72;1818123;78;25383;-72
2022/01/03 06:46:48;;;;;;;11.88;5.58;;;;;;;7.05;89.06;98985.28;1794501;79;28039;-72
2022/01/03 06:49:15;;;;;;;10.35;5.95;;;;;;;7.05;89.13;98989.31;1817898;78;25640;-72
2022/01/03 06:51:42;;;;;;;8.15;5.62;;;;;;;7.07;89.20;98994.37;1818051;78;25663;-72
2022/01/03 06:54:14;;;;;;;7.97;5.87;;;;;;;7.08;89.27;98996.75;1787934;78;25545;-71
2022/01/03 06:56:41;;;;;;;8.53;5.30;;;;;;;7.11;89.30;98999.35;1794344;79;25640;-71
2022/01/03 06:59:09;;;;;;;11.18;6.12;;;;;;;7.15;89.34;98996.28;1833744;76;27443;-71
2022/01/03 07:01:36;;;;;;;9.68;5.60;;;;;;;7.19;89.37;98995.09;1807646;78;25713;-72
2022/01/03 07:04:03;;;;;;;14.65;6.37;;;;;;;7.21;89.28;98984.80;1806791;77;25807;-71
2022/01/03 07:06:31;;;;;;;10.78;5.72;;;;;;;7.22;89.17;98985.02;1797376;78;26377;-71
2022/01/03 07:08:58;;;;;;;8.43;6.00;;;;;;;7.24;89.05;98981.48;1826845;78;25685;-71
2022/01/03 07:11:25;;;;;;;13.35;6.25;;;;;;;7.26;89.01;98990.80;1794333;80;27483;-71
2022/01/03 07:14:04;;;;;;;11.33;6.33;;;;;;;7.27;89.11;98989.70;1826945;78;25447;-71
2022/01/03 07:19:07;;;;;;;11.65;5.95;;;;;;;7.31;88.95;98993.10;1840097;76;25724;-70
2022/01/03 07:21:34;;;;;;;13.13;6.30;;;;;;;7.31;88.88;98987.16;1869026;76;25694;-71
2022/01/03 07:24:02;;;;;;;12.65;6.20;;;;;;;7.33;88.89;99000.29;1868855;76;27460;-71
2022/01/03 07:26:28;;;;;;;10.13;6.58;;;;;;;7.34;88.92;98993.25;1868795;76;25610;-71
2022/01/03 07:28:56;;;;;;;9.40;6.20;;;;;;;7.34;88.88;99005.89;1834750;78;25737;-74
2022/01/03 07:31:22;;;;;;;10.90;7.28;;;;;;;7.34;88.98;99004.02;1860606;77;25537;-71
2022/01/03 07:33:49;;;;;;;9.90;6.15;;;;;;;7.36;89.01;98996.97;1834624;78;25576;-72
2022/01/03 07:36:16;;;;;;;14.33;7.30;;;;;;;7.38;89.06;98994.75;1860491;77;27492;-73
2022/01/03 07:38:46;;;;;;;12.18;7.42;;;;;;;7.38;89.07;98995.53;1834637;78;25678;-71
2022/01/03 07:41:10;;;;;;;12.18;6.90;;;;;;;7.41;89.13;98995.46;1860009;77;25541;-72
2022/01/03 07:43:37;;;;;;;11.48;7.08;;;;;;;7.43;89.17;99001.31;1834554;78;25628;-71
2022/01/03 07:46:03;;;;;;;8.88;6.65;;;;;;;7.43;89.29;98994.58;1860545;77;26289;-71
2022/01/03 07:48:32;;;;;;;13.55;7.42;;;;;;;7.47;89.26;98996.86;1834923;78;28116;-71
2022/01/03 07:50:59;;;;;;;12.78;6.97;;;;;;;7.47;89.32;99001.70;1855783;77;25566;-71
2022/01/03 07:53:27;;;;;;;9.83;6.37;;;;;;;7.50;89.33;99002.16;1808182;79;25576;-71
2022/01/03 07:55:54;;;;;;;10.48;6.72;;;;;;;7.52;89.23;98997.25;1807905;79;25627;-70
2022/01/03 07:58:21;;;;;;;9.23;6.83;;;;;;;7.54;89.34;99007.91;1807996;79;25649;-72
2022/01/03 08:00:47;;;;;;;10.53;6.53;;;;;;;7.56;89.31;99004.38;1807959;79;27441;-72
2022/01/03 08:03:15;;;;;;;10.25;6.62;;;;;;;7.60;89.49;99002.61;1807883;79;25647;-72
2022/01/03 08:05:41;;;;;;;10.93;6.53;;;;;;;7.64;89.30;99004.10;1807797;79;25714;-72
2022/01/03 08:08:09;;;;;;;9.88;6.62;;;;;;;7.66;89.34;98994.61;1808055;79;25653;-72
2022/01/03 08:10:38;;;;;;;10.15;6.60;;;;;;;7.71;89.19;98997.66;1808061;79;25686;-69
2022/01/03 08:13:05;;;;;;;13.70;6.80;;;;;;;7.75;89.31;98995.93;1808019;79;28019;-71
2022/01/03 08:15:31;;;;;;;10.35;6.67;;;;;;;7.81;89.20;98995.97;1792443;78;26250;-71
2022/01/03 08:17:58;;;;;;;12.10;6.50;;;;;;;7.86;89.08;98994.45;1817311;78;25570;-72
2022/01/03 08:20:25;;;;;;;8.98;6.17;;;;;;;7.91;88.82;98996.75;1860588;77;25673;-72
2022/01/03 08:22:53;;;;;;;9.13;6.65;;;;;;;7.94;88.59;98990.16;1822955;78;26067;-72
2022/01/03 08:25:19;;;;;;;7.90;6.28;;;;;;;7.96;88.47;98991.97;1854420;77;27490;-71
2022/01/03 08:27:46;;;;;;;11.35;6.00;;;;;;;7.99;88.33;98990.55;1820860;78;25589;-71
2022/01/03 08:30:13;;;;;;;11.85;5.65;;;;;;;8.01;88.09;98995.05;1854490;77;25614;-71
2022/01/03 08:32:40;;;;;;;9.38;5.62;;;;;;;8.04;88.15;98999.79;1820863;78;25544;-71
2022/01/03 08:35:08;;;;;;;16.93;10.68;;;;;;;8.04;87.91;98990.36;1854249;77;25397;-71
2022/01/03 08:37:35;;;;;;;11.03;6.42;;;;;;;8.06;87.93;98990.83;1821537;78;27559;-70
2022/01/03 08:40:04;;;;;;;8.28;5.75;;;;;;;8.07;87.61;98988.37;1855847;77;25279;-71
2022/01/03 08:42:31;;;;;;;13.50;6.33;;;;;;;8.11;87.65;98996.03;1821753;78;25624;-71
2022/01/03 08:44:58;;;;;;;12.13;5.95;;;;;;;8.13;87.41;98993.80;1854087;77;25692;-71
2022/01/03 08:47:24;;;;;;;12.98;6.25;;;;;;;8.17;87.50;98998.78;1820723;78;25640;-71
2022/01/03 08:49:51;;;;;;;11.63;6.60;;;;;;;8.20;87.36;98994.07;1854183;77;27985;-71
2022/01/03 08:52:17;;;;;;;10.98;5.87;;;;;;;8.25;87.52;98992.33;1820934;78;25546;-72
2022/01/03 08:54:44;;;;;;;13.72;6.80;;;;;;;8.32;87.55;98995.30;1854408;77;25631;-71
2022/01/03 08:57:10;;;;;;;9.03;6.72;;;;;;;8.35;87.06;98993.30;1820965;78;25475;-71
2022/01/03 08:59:37;;;;;;;10.40;6.60;;;;;;;8.38;87.01;98992.66;1854465;77;25650;-71
2022/01/03 09:02:03;;;;;;;9.40;6.35;;;;;;;8.40;87.10;98993.90;1820766;78;27474;-72
2022/01/03 09:04:30;;;;;;;16.67;9.38;;;;;;;8.45;87.15;98990.83;1821006;77;25710;-72
2022/01/03 09:06:58;;;;;;;11.50;7.10;;;;;;;8.45;86.94;99002.39;1820618;78;25699;-72
2022/01/03 09:09:27;;;;;;;12.05;6.95;;;;;;;8.44;86.57;99000.02;1854215;77;25580;-73
2022/01/03 09:11:53;;;;;;;16.12;7.42;;;;;;;8.39;86.55;98997.72;1820883;78;25738;-72
2022/01/03 09:14:20;;;;;;;12.88;6.87;;;;;;;8.36;86.86;99004.30;1820914;78;27468;-73
2022/01/03 09:16:47;;;;;;;11.93;7.00;;;;;;;8.34;86.91;99003.30;1788433;80;25662;-73
2022/01/03 09:19:13;;;;;;;15.95;7.45;;;;;;;8.32;86.86;99001.47;1787969;78;25570;-72
2022/01/03 09:21:40;;;;;;;13.05;7.50;;;;;;;8.32;87.14;99001.47;1820956;77;25668;-73
2022/01/03 09:24:22;;;;;;;10.48;7.58;;;;;;;8.32;87.22;99004.16;1771734;79;25836;-73
2022/01/03 09:29:29;;;;;;;14.25;7.58;;;;;;;8.29;87.30;98997.28;1758722;81;25662;-71
2022/01/03 09:31:55;;;;;;;13.43;8.25;;;;;;;8.26;87.33;98993.89;1775659;80;25654;-70
2022/01/03 09:34:22;;;;;;;13.80;7.72;;;;;;;8.23;87.54;99000.73;1758668;81;25661;-70
2022/01/03 09:36:49;;;;;;;10.85;7.50;;;;;;;8.22;87.73;98989.17;1775695;80;25677;-70
2022/01/03 09:39:15;;;;;;;13.83;8.18;;;;;;;8.23;87.86;98993.99;1758837;81;27671;-71
2022/01/03 09:41:59;;;;;;;16.10;8.18;;;;;;;8.23;87.94;98995.34;1775494;80;25723;-71
2022/01/03 09:44:33;;;;;;;10.63;7.67;;;;;;;8.24;88.12;98992.89;1758690;81;25452;-72
2022/01/03 09:47:03;;;;;;;14.07;8.35;;;;;;;8.25;88.12;98982.33;1775507;80;25621;-72
2022/01/03 09:49:37;;;;;;;10.75;8.25;;;;;;;8.23;88.06;98985.34;1758918;81;25686;-72
2022/01/03 09:52:07;;;;;;;13.78;8.13;;;;;;;8.20;88.11;98984.64;1775883;80;28199;-71
2022/01/03 09:54:36;;;;;;;13.65;8.20;;;;;;;8.21;88.26;98986.80;1758868;81;25301;-73
2022/01/03 09:57:05;;;;;;;10.65;7.22;;;;;;;8.19;88.31;98980.95;1749125;80;25739;-72
2022/01/03 09:59:33;;;;;;;12.28;8.65;;;;;;;8.17;88.31;98987.20;1760256;80;25598;-70
2022/01/03 10:02:00;;;;;;;11.00;8.05;;;;;;;8.16;88.47;98984.30;1785730;80;25802;-71
2022/01/03 10:04:27;;;;;;;9.00;6.50;;;;;;;8.15;88.67;98980.01;1783982;79;27612;-71
2022/01/03 10:06:53;;;;;;;12.73;7.53;;;;;;;8.12;88.73;98980.11;1760383;81;25688;-71
2022/01/03 10:09:23;;;;;;;11.48;7.20;;;;;;;8.12;88.82;98980.11;1760380;81;25540;-72
2022/01/03 10:11:50;;;;;;;10.08;6.78;;;;;;;8.12;88.93;98969.88;1760682;81;25679;-71
2022/01/03 10:14:17;;;;;;;8.43;6.80;;;;;;;8.13;89.12;98970.13;1760265;81;25677;-72
2022/01/03 10:16:46;;;;;;;7.53;6.47;;;;;;;8.10;89.06;98972.89;1777276;80;27453;-72
2022/01/03 10:19:13;;;;;;;9.28;6.90;;;;;;;8.09;89.10;98972.68;1764981;78;25639;-72
2022/01/03 10:21:47;;;;;;;9.78;6.65;;;;;;;8.11;89.30;98965.63;1754939;81;25567;-73
2022/01/03 10:24:17;;;;;;;10.23;6.70;;;;;;;8.09;89.33;98966.48;1776028;79;26251;-74
2022/01/03 10:26:53;;;;;;;10.70;6.62;;;;;;;8.06;89.35;98967.94;1791860;80;25772;-73
2022/01/03 10:29:23;;;;;;;10.93;6.95;;;;;;;8.03;89.86;98970.70;1791789;80;27480;-73
2022/01/03 10:31:56;;;;;;;8.33;6.17;;;;;;;8.03;89.78;98965.31;1792144;78;26226;-74
2022/01/03 10:34:24;;;;;;;11.78;6.62;;;;;;;7.99;89.91;98965.75;1788730;80;25782;-73
2022/01/03 10:36:54;;;;;;;11.45;6.25;;;;;;;8.00;90.14;98965.18;1788357;80;25595;-74
2022/01/03 10:39:28;;;;;;;7.85;5.72;;;;;;;7.99;90.28;98964.40;1788594;80;25407;-73
2022/01/03 10:42:16;;;;;;;6.65;4.90;;;;;;;7.97;90.33;98965.84;1788559;80;27470;-73
2022/01/03 10:44:44;;;;;;;7.60;6.75;;;;;;;7.93;90.27;98968.94;1788546;80;25762;-73
2022/01/03 10:47:31;;;;;;;7.10;5.40;;;;;;;7.89;90.66;98971.48;1788545;80;25412;-73
2022/01/03 10:49:57;;;;;;;7.00;5.40;;;;;;;7.85;90.66;98969.22;1788564;80;25708;-73
2022/01/03 10:52:29;;;;;;;7.80;5.05;;;;;;;7.86;90.83;98970.78;1788776;80;25589;-72
2022/01/03 10:55:35;;;;;;;6.72;4.78;;;;;;;7.86;90.96;98973.48;1784924;80;28035;-72
2022/01/03 10:58:07;;;;;;;6.83;4.90;;;;;;;7.83;91.05;98976.27;1782425;80;25782;-74
2022/01/03 11:00:44;;;;;;;6.22;5.55;;;;;;;7.82;91.23;98973.90;1782609;80;25568;-74
2022/01/03 11:03:31;;;;;;;6.30;4.67;;;;;;;7.81;91.42;98970.96;1782501;80;25645;-73
2022/01/03 11:06:13;;;;;;;8.40;4.65;;;;;;;7.79;91.29;98972.63;1754440;80;25735;-71
2022/01/03 11:11:19;;;;;;;6.03;4.05;;;;;;;7.77;91.44;98976.20;1785293;80;25554;-73
2022/01/03 11:13:50;;;;;;;5.12;4.05;;;;;;;7.76;91.56;98971.92;1780033;80;25649;-72
2022/01/03 11:16:16;;;;;;;5.78;4.50;;;;;;;7.71;91.50;98979.39;1785587;80;25736;-73
2022/01/03 11:18:48;;;;;;;8.88;4.67;;;;;;;7.66;91.90;98979.81;1785620;80;25265;-74
2022/01/03 11:21:18;;;;;;;5.40;4.10;;;;;;;7.62;91.57;98970.00;1785831;80;27527;-73
2022/01/03 11:24:02;;;;;;;7.17;4.10;;;;;;;7.60;91.67;98966.28;1780088;80;25863;-72
2022/01/03 11:26:31;;;;;;;6.08;4.40;;;;;;;7.60;91.89;98966.28;1767688;80;25656;-72
2022/01/03 11:28:58;;;;;;;6.30;4.15;;;;;;;7.59;91.83;98959.88;1781444;80;25559;-72
2022/01/03 11:31:25;;;;;;;8.88;3.58;;;;;;;7.60;91.87;98962.81;1781379;80;25515;-72
2022/01/03 11:33:53;;;;;;;5.78;4.10;;;;;;;7.58;91.60;98958.31;1789445;80;27463;-73
2022/01/03 11:36:23;;;;;;;6.62;3.90;;;;;;;7.58;91.69;98958.31;1789278;80;25621;-74
2022/01/03 11:38:56;;;;;;;5.97;4.17;;;;;;;7.55;91.83;98962.42;1789360;80;25733;-74
2022/01/03 11:41:23;;;;;;;5.78;3.30;;;;;;;7.55;91.95;98955.69;1789351;80;25670;-74
2022/01/03 11:43:50;;;;;;;4.50;3.25;;;;;;;7.56;91.84;98957.28;1789371;80;25507;-73
2022/01/03 11:46:17;;;;;;;6.55;3.10;;;;;;;7.58;91.89;98956.40;1789247;80;27412;-73
2022/01/03 11:48:46;;;;;;;5.78;3.50;;;;;;;7.60;91.95;98954.73;1789374;80;25604;-73
2022/01/03 11:51:13;;;;;;;3.98;3.37;;;;;;;7.62;92.12;98955.20;1789585;80;25662;-72
2022/01/03 11:53:47;;;;;;;6.05;3.50;;;;;;;7.64;92.27;98948.39;1789467;80;25487;-71
2022/01/03 11:56:19;;;;;;;5.35;3.20;;;;;;;7.73;92.45;98951.59;1789269;80;26239;-72
2022/01/03 11:58:58;;;;;;;4.85;3.60;;;;;;;7.77;91.99;98941.77;1789539;80;27659;-72